sensor_id;sensor_type;location;lat;lon;timestamp;pressure;altitude;pressure_sealevel;temperature;humidity
11621;BME280;5866;49.094;11.900;2023-02-12T00:00:47;98009.16;;;4.39;100.00
11621;BME280;5866;49.094;11.900;2023-02-12T00:03:14;98012.09;;;4.33;100.00
11621;BME280;5866;49.094;11.900;2023-02-12T00:05:42;98012.88;;;4.50;100.00
11621;BME280;5866;49.094;11.900;2023-02-12T00:08:10;98003.56;;;4.45;100.00
11621;BME280;5866;49.094;11.900;2023-02-12T00:10:39;98012.59;;;4.72;100.00
11621;BME280;5866;49.094;11.900;2023-02-12T00:13:08;97997.16;;;4.66;100.00
11621;BME280;5866;49.094;11.900;2023-02-12T00:15:39;97995.66;;;4.77;100.00
11621;BME280;5866;49.094;11.900;2023-02-12T00:18:07;97999.66;;;5.00;100.00
11621;BME280;5866;49.094;11.900;2023-02-12T00:20:35;98003.75;;;4.42;100.00
11621;BME280;5866;49.094;11.900;2023-02-12T00:23:03;97993.09;;;4.76;100.00
11621;BME280;5866;49.094;11.900;2023-02-12T00:25:31;97997.31;;;4.63;100.00
11621;BME280;5866;49.094;11.900;2023-02-12T00:27:58;97990.53;;;4.43;100.00
11621;BME280;5866;49.094;11.900;2023-02-12T00:30:26;97994.06;;;4.75;100.00
11621;BME280;5866;49.094;11.900;2023-02-12T00:32:55;97994.81;;;5.08;100.00
11621;BME280;5866;49.094;11.900;2023-02-12T00:35:22;98002.88;;;4.90;100.00
11621;BME280;5866;49.094;11.900;2023-02-12T00:37:50;98009.56;;;4.79;100.00
11621;BME280;5866;49.094;11.900;2023-02-12T00:40:17;98017.13;;;4.37;100.00
11621;BME280;5866;49.094;11.900;2023-02-12T00:42:45;98017.66;;;4.59;100.00
11621;BME280;5866;49.094;11.900;2023-02-12T00:45:13;98017.88;;;4.39;100.00
11621;BME280;5866;49.094;11.900;2023-02-12T00:47:40;98025.56;;;4.27;100.00
11621;BME280;5866;49.094;11.900;2023-02-12T00:50:10;98024.75;;;4.42;100.00
11621;BME280;5866;49.094;11.900;2023-02-12T00:52:37;98023.19;;;4.38;100.00
11621;BME280;5866;49.094;11.900;2023-02-12T00:55:05;98020.41;;;4.41;100.00
11621;BME280;5866;49.094;11.900;2023-02-12T00:57:33;98016.78;;;4.43;100.00
11621;BME280;5866;49.094;11.900;2023-02-12T01:00:00;98018.25;;;4.32;100.00
11621;BME280;5866;49.094;11.900;2023-02-12T01:02:28;98022.44;;;4.36;100.00
11621;BME280;5866;49.094;11.900;2023-02-12T01:04:55;98025.53;;;4.44;100.00
11621;BME280;5866;49.094;11.900;2023-02-12T01:07:25;98037.03;;;4.74;100.00
11621;BME280;5866;49.094;11.900;2023-02-12T01:09:52;98032.22;;;4.49;100.00
11621;BME280;5866;49.094;11.900;2023-02-12T01:12:20;98035.22;;;4.59;100.00
11621;BME280;5866;49.094;11.900;2023-02-12T01:14:47;98039.38;;;4.63;100.00
11621;BME280;5866;49.094;11.900;2023-02-12T01:17:15;98039.97;;;4.52;100.00
11621;BME280;5866;49.094;11.900;2023-02-12T01:19:42;98042.38;;;4.40;100.00
11621;BME280;5866;49.094;11.900;2023-02-12T01:22:10;98029.81;;;4.62;100.00
11621;BME280;5866;49.094;11.900;2023-02-12T01:24:39;98033.88;;;4.67;100.00
11621;BME280;5866;49.094;11.900;2023-02-12T01:27:07;98035.09;;;4.45;100.00
11621;BME280;5866;49.094;11.900;2023-02-12T01:29:34;98032.03;;;4.37;100.00
11621;BME280;5866;49.094;11.900;2023-02-12T01:32:02;98031.88;;;4.40;100.00
11621;BME280;5866;49.094;11.900;2023-02-12T01:34:30;98033.66;;;4.39;100.00
11621;BME280;5866;49.094;11.900;2023-02-12T01:36:57;98027.13;;;4.46;100.00
11621;BME280;5866;49.094;11.900;2023-02-12T01:39:25;98040.69;;;4.39;100.00
11621;BME280;5866;49.094;11.900;2023-02-12T01:41:54;98033.44;;;4.59;100.00
11621;BME280;5866;49.094;11.900;2023-02-12T01:44:24;98024.84;;;4.23;100.00
11621;BME280;5866;49.094;11.900;2023-02-12T01:46:55;98028.63;;;4.35;100.00
11621;BME280;5866;49.094;11.900;2023-02-12T01:49:25;98033.09;;;4.50;100.00
11621;BME280;5866;49.094;11.900;2023-02-12T01:51:58;98021.31;;;4.57;100.00
11621;BME280;5866;49.094;11.900;2023-02-12T01:54:29;98024.59;;;4.93;100.00
11621;BME280;5866;49.094;11.900;2023-02-12T01:57:02;98022.06;;;4.59;100.00
11621;BME280;5866;49.094;11.900;2023-02-12T01:59:30;98020.72;;;4.52;100.00
11621;BME280;5866;49.094;11.900;2023-02-12T02:01:58;98035.63;;;4.51;100.00
11621;BME280;5866;49.094;11.900;2023-02-12T02:04:28;98032.16;;;4.34;100.00
11621;BME280;5866;49.094;11.900;2023-02-12T02:06:58;98040.34;;;4.45;100.00
11621;BME280;5866;49.094;11.900;2023-02-12T02:09:28;98035.94;;;4.45;100.00
11621;BME280;5866;49.094;11.900;2023-02-12T02:11:56;98038.53;;;4.62;100.00
11621;BME280;5866;49.094;11.900;2023-02-12T02:14:45;98042.22;;;4.91;100.00
11621;BME280;5866;49.094;11.900;2023-02-12T02:17:31;98041.16;;;5.11;100.00
11621;BME280;5866;49.094;11.900;2023-02-12T02:23:28;98042.16;;;5.08;100.00
11621;BME280;5866;49.094;11.900;2023-02-12T02:29:26;98035.50;;;6.09;100.00
11621;BME280;5866;49.094;11.900;2023-02-12T02:32:05;98026.25;;;6.02;100.00
11621;BME280;5866;49.094;11.900;2023-02-12T02:34:38;98018.44;;;5.86;100.00
11621;BME280;5866;49.094;11.900;2023-02-12T02:37:13;98019.66;;;5.18;100.00
11621;BME280;5866;49.094;11.900;2023-02-12T02:39:48;98034.69;;;5.01;100.00
11621;BME280;5866;49.094;11.900;2023-02-12T02:42:22;98032.47;;;4.93;100.00
11621;BME280;5866;49.094;11.900;2023-02-12T02:44:54;98027.22;;;4.93;100.00
11621;BME280;5866;49.094;11.900;2023-02-12T02:47:31;98034.78;;;4.51;100.00
11621;BME280;5866;49.094;11.900;2023-02-12T02:50:03;98052.56;;;4.46;100.00
11621;BME280;5866;49.094;11.900;2023-02-12T02:52:35;98044.84;;;4.43;100.00
11621;BME280;5866;49.094;11.900;2023-02-12T02:55:06;98047.78;;;4.37;100.00
11621;BME280;5866;49.094;11.900;2023-02-12T02:57:37;98046.88;;;4.21;100.00
11621;BME280;5866;49.094;11.900;2023-02-12T03:00:11;98049.19;;;4.44;100.00
11621;BME280;5866;49.094;11.900;2023-02-12T03:02:44;98051.59;;;4.31;100.00
11621;BME280;5866;49.094;11.900;2023-02-12T03:05:17;98042.09;;;4.61;100.00
11621;BME280;5866;49.094;11.900;2023-02-12T03:07:48;98049.94;;;4.78;100.00
11621;BME280;5866;49.094;11.900;2023-02-12T03:10:19;98048.53;;;5.04;100.00
11621;BME280;5866;49.094;11.900;2023-02-12T03:12:51;98044.00;;;4.91;100.00
11621;BME280;5866;49.094;11.900;2023-02-12T03:15:24;98050.44;;;4.85;100.00
11621;BME280;5866;49.094;11.900;2023-02-12T03:17:57;98045.91;;;5.04;100.00
11621;BME280;5866;49.094;11.900;2023-02-12T03:20:29;98048.34;;;4.92;100.00
11621;BME280;5866;49.094;11.900;2023-02-12T03:23:01;98050.91;;;5.09;100.00
11621;BME280;5866;49.094;11.900;2023-02-12T03:25:34;98061.63;;;4.89;100.00
11621;BME280;5866;49.094;11.900;2023-02-12T03:28:09;98057.56;;;4.83;100.00
11621;BME280;5866;49.094;11.900;2023-02-12T03:30:43;98064.72;;;5.12;100.00
11621;BME280;5866;49.094;11.900;2023-02-12T03:33:19;98062.50;;;4.89;100.00
11621;BME280;5866;49.094;11.900;2023-02-12T03:35:54;98063.59;;;4.85;100.00
11621;BME280;5866;49.094;11.900;2023-02-12T03:38:30;98070.81;;;4.81;100.00
11621;BME280;5866;49.094;11.900;2023-02-12T03:41:04;98070.06;;;4.95;100.00
11621;BME280;5866;49.094;11.900;2023-02-12T03:43:39;98069.13;;;4.96;100.00
11621;BME280;5866;49.094;11.900;2023-02-12T03:46:18;98070.16;;;5.09;100.00
11621;BME280;5866;49.094;11.900;2023-02-12T03:48:56;98064.88;;;5.40;100.00
11621;BME280;5866;49.094;11.900;2023-02-12T03:51:28;98061.41;;;5.71;100.00
11621;BME280;5866;49.094;11.900;2023-02-12T03:54:00;98064.84;;;6.03;100.00
11621;BME280;5866;49.094;11.900;2023-02-12T03:56:33;98061.56;;;6.57;100.00
11621;BME280;5866;49.094;11.900;2023-02-12T03:59:02;98053.25;;;7.19;100.00
11621;BME280;5866;49.094;11.900;2023-02-12T04:01:30;98053.38;;;7.45;100.00
11621;BME280;5866;49.094;11.900;2023-02-12T04:04:02;98051.78;;;7.42;100.00
11621;BME280;5866;49.094;11.900;2023-02-12T04:06:30;98045.28;;;7.48;100.00
11621;BME280;5866;49.094;11.900;2023-02-12T04:09:02;98054.06;;;7.75;100.00
11621;BME280;5866;49.094;11.900;2023-02-12T04:11:40;98055.84;;;7.74;100.00
11621;BME280;5866;49.094;11.900;2023-02-12T04:14:21;98067.31;;;7.87;100.00
11621;BME280;5866;49.094;11.900;2023-02-12T04:16:58;98061.97;;;8.01;100.00
11621;BME280;5866;49.094;11.900;2023-02-12T04:19:33;98055.81;;;8.01;100.00
11621;BME280;5866;49.094;11.900;2023-02-12T04:22:22;98052.75;;;7.68;100.00
11621;BME280;5866;49.094;11.900;2023-02-12T04:24:58;98063.78;;;7.34;100.00
11621;BME280;5866;49.094;11.900;2023-02-12T04:27:39;98062.34;;;7.42;100.00
11621;BME280;5866;49.094;11.900;2023-02-12T04:30:19;98065.25;;;7.52;100.00
11621;BME280;5866;49.094;11.900;2023-02-12T04:32:50;98063.66;;;7.49;100.00
11621;BME280;5866;49.094;11.900;2023-02-12T04:35:24;98072.38;;;7.64;100.00
11621;BME280;5866;49.094;11.900;2023-02-12T04:37:56;98065.72;;;7.85;100.00
11621;BME280;5866;49.094;11.900;2023-02-12T04:40:25;98078.31;;;7.94;100.00
11621;BME280;5866;49.094;11.900;2023-02-12T04:42:53;98076.78;;;8.04;100.00
11621;BME280;5866;49.094;11.900;2023-02-12T04:45:23;98081.84;;;8.07;100.00
11621;BME280;5866;49.094;11.900;2023-02-12T04:47:52;98082.59;;;8.09;100.00
11621;BME280;5866;49.094;11.900;2023-02-12T04:50:21;98084.28;;;8.10;100.00
11621;BME280;5866;49.094;11.900;2023-02-12T04:52:48;98081.94;;;8.06;100.00
11621;BME280;5866;49.094;11.900;2023-02-12T04:55:16;98079.66;;;7.87;100.00
11621;BME280;5866;49.094;11.900;2023-02-12T04:57:44;98082.84;;;7.92;100.00
11621;BME280;5866;49.094;11.900;2023-02-12T05:00:13;98085.28;;;7.95;100.00
11621;BME280;5866;49.094;11.900;2023-02-12T05:02:41;98091.72;;;7.91;100.00
11621;BME280;5866;49.094;11.900;2023-02-12T05:05:09;98092.25;;;7.96;100.00
11621;BME280;5866;49.094;11.900;2023-02-12T05:07:38;98084.03;;;8.00;100.00
11621;BME280;5866;49.094;11.900;2023-02-12T05:10:07;98083.97;;;8.02;100.00
11621;BME280;5866;49.094;11.900;2023-02-12T05:12:35;98081.59;;;7.97;100.00
11621;BME280;5866;49.094;11.900;2023-02-12T05:15:02;98090.59;;;7.95;100.00
11621;BME280;5866;49.094;11.900;2023-02-12T05:17:30;98090.25;;;7.87;100.00
11621;BME280;5866;49.094;11.900;2023-02-12T05:19:57;98083.88;;;7.77;100.00
11621;BME280;5866;49.094;11.900;2023-02-12T05:22:25;98094.00;;;7.56;100.00
11621;BME280;5866;49.094;11.900;2023-02-12T05:24:54;98088.72;;;7.56;100.00
11621;BME280;5866;49.094;11.900;2023-02-12T05:27:21;98092.75;;;7.35;100.00
11621;BME280;5866;49.094;11.900;2023-02-12T05:29:49;98097.16;;;7.35;100.00
11621;BME280;5866;49.094;11.900;2023-02-12T05:32:16;98097.13;;;7.49;100.00
11621;BME280;5866;49.094;11.900;2023-02-12T05:34:44;98106.38;;;7.56;100.00
11621;BME280;5866;49.094;11.900;2023-02-12T05:37:11;98109.16;;;7.67;100.00
11621;BME280;5866;49.094;11.900;2023-02-12T05:39:39;98110.84;;;7.41;100.00
11621;BME280;5866;49.094;11.900;2023-02-12T05:42:08;98110.00;;;7.12;100.00
11621;BME280;5866;49.094;11.900;2023-02-12T05:44:35;98114.91;;;7.33;100.00
11621;BME280;5866;49.094;11.900;2023-02-12T05:47:03;98107.16;;;6.87;100.00
11621;BME280;5866;49.094;11.900;2023-02-12T05:49:30;98103.19;;;6.66;100.00
11621;BME280;5866;49.094;11.900;2023-02-12T05:51:58;98107.13;;;6.15;100.00
11621;BME280;5866;49.094;11.900;2023-02-12T05:54:25;98105.88;;;6.36;100.00
11621;BME280;5866;49.094;11.900;2023-02-12T05:56:53;98103.19;;;6.66;100.00
11621;BME280;5866;49.094;11.900;2023-02-12T05:59:22;98108.16;;;6.43;100.00
11621;BME280;5866;49.094;11.900;2023-02-12T06:01:50;98107.25;;;7.00;100.00
11621;BME280;5866;49.094;11.900;2023-02-12T06:04:19;98110.94;;;7.11;100.00
11621;BME280;5866;49.094;11.900;2023-02-12T06:06:49;98105.97;;;6.93;100.00
11621;BME280;5866;49.094;11.900;2023-02-12T06:09:17;98113.16;;;6.47;100.00
11621;BME280;5866;49.094;11.900;2023-02-12T06:11:44;98110.53;;;6.61;100.00
11621;BME280;5866;49.094;11.900;2023-02-12T06:14:14;98119.91;;;6.07;100.00
11621;BME280;5866;49.094;11.900;2023-02-12T06:16:45;98119.91;;;5.92;100.00
11621;BME280;5866;49.094;11.900;2023-02-12T06:19:13;98122.91;;;5.86;100.00
11621;BME280;5866;49.094;11.900;2023-02-12T06:21:41;98124.88;;;6.41;100.00
11621;BME280;5866;49.094;11.900;2023-02-12T06:24:08;98126.53;;;6.58;100.00
11621;BME280;5866;49.094;11.900;2023-02-12T06:26:36;98131.47;;;5.89;100.00
11621;BME280;5866;49.094;11.900;2023-02-12T06:29:03;98135.22;;;6.01;100.00
11621;BME280;5866;49.094;11.900;2023-02-12T06:31:32;98141.47;;;5.83;100.00
11621;BME280;5866;49.094;11.900;2023-02-12T06:34:04;98142.91;;;5.73;100.00
11621;BME280;5866;49.094;11.900;2023-02-12T06:36:34;98145.91;;;5.98;100.00
11621;BME280;5866;49.094;11.900;2023-02-12T06:39:03;98140.03;;;6.38;100.00
11621;BME280;5866;49.094;11.900;2023-02-12T06:41:30;98141.28;;;7.04;100.00
11621;BME280;5866;49.094;11.900;2023-02-12T06:43:58;98131.09;;;7.41;100.00
11621;BME280;5866;49.094;11.900;2023-02-12T06:46:25;98144.63;;;7.63;100.00
11621;BME280;5866;49.094;11.900;2023-02-12T06:48:54;98140.53;;;7.45;100.00
11621;BME280;5866;49.094;11.900;2023-02-12T06:51:23;98144.44;;;7.66;100.00
11621;BME280;5866;49.094;11.900;2023-02-12T06:53:51;98140.47;;;7.73;100.00
11621;BME280;5866;49.094;11.900;2023-02-12T06:56:21;98140.50;;;7.85;100.00
11621;BME280;5866;49.094;11.900;2023-02-12T06:58:52;98146.06;;;7.95;100.00
11621;BME280;5866;49.094;11.900;2023-02-12T07:01:22;98154.19;;;7.92;100.00
11621;BME280;5866;49.094;11.900;2023-02-12T07:03:52;98143.47;;;7.81;100.00
11621;BME280;5866;49.094;11.900;2023-02-12T07:06:20;98156.13;;;7.76;100.00
11621;BME280;5866;49.094;11.900;2023-02-12T07:08:49;98153.72;;;7.85;100.00
11621;BME280;5866;49.094;11.900;2023-02-12T07:11:17;98153.19;;;7.80;100.00
11621;BME280;5866;49.094;11.900;2023-02-12T07:13:44;98155.09;;;8.05;100.00
11621;BME280;5866;49.094;11.900;2023-02-12T07:16:13;98150.31;;;8.24;100.00
11621;BME280;5866;49.094;11.900;2023-02-12T07:18:42;98157.28;;;8.39;100.00
11621;BME280;5866;49.094;11.900;2023-02-12T07:21:11;98159.56;;;8.31;100.00
11621;BME280;5866;49.094;11.900;2023-02-12T07:23:39;98156.25;;;8.54;100.00
11621;BME280;5866;49.094;11.900;2023-02-12T07:26:11;98163.78;;;8.60;100.00
11621;BME280;5866;49.094;11.900;2023-02-12T07:28:40;98163.88;;;8.71;100.00
11621;BME280;5866;49.094;11.900;2023-02-12T07:31:09;98161.91;;;8.88;100.00
11621;BME280;5866;49.094;11.900;2023-02-12T07:33:38;98163.28;;;8.80;100.00
11621;BME280;5866;49.094;11.900;2023-02-12T07:36:10;98166.53;;;8.32;100.00
11621;BME280;5866;49.094;11.900;2023-02-12T07:38:38;98160.88;;;8.24;100.00
11621;BME280;5866;49.094;11.900;2023-02-12T07:41:09;98166.84;;;8.54;100.00
11621;BME280;5866;49.094;11.900;2023-02-12T07:43:38;98160.75;;;8.92;100.00
11621;BME280;5866;49.094;11.900;2023-02-12T07:46:11;98168.47;;;9.07;100.00
11621;BME280;5866;49.094;11.900;2023-02-12T07:48:39;98165.06;;;8.93;100.00
11621;BME280;5866;49.094;11.900;2023-02-12T07:51:09;98158.63;;;9.34;100.00
11621;BME280;5866;49.094;11.900;2023-02-12T07:53:37;98162.19;;;9.58;100.00
11621;BME280;5866;49.094;11.900;2023-02-12T07:56:07;98153.34;;;9.83;99.33
11621;BME280;5866;49.094;11.900;2023-02-12T07:58:37;98168.16;;;8.87;100.00
11621;BME280;5866;49.094;11.900;2023-02-12T08:01:16;98158.94;;;7.87;100.00
11621;BME280;5866;49.094;11.900;2023-02-12T08:03:45;98177.06;;;6.80;100.00
11621;BME280;5866;49.094;11.900;2023-02-12T08:06:15;98179.09;;;6.61;100.00
11621;BME280;5866;49.094;11.900;2023-02-12T08:08:43;98173.97;;;6.58;100.00
11621;BME280;5866;49.094;11.900;2023-02-12T08:11:12;98179.25;;;6.58;100.00
11621;BME280;5866;49.094;11.900;2023-02-12T08:13:41;98183.38;;;6.48;100.00
11621;BME280;5866;49.094;11.900;2023-02-12T08:16:10;98185.63;;;6.24;100.00
11621;BME280;5866;49.094;11.900;2023-02-12T08:18:39;98184.03;;;6.22;100.00
11621;BME280;5866;49.094;11.900;2023-02-12T08:21:07;98179.00;;;6.33;100.00
11621;BME280;5866;49.094;11.900;2023-02-12T08:23:36;98183.69;;;6.28;100.00
11621;BME280;5866;49.094;11.900;2023-02-12T08:26:06;98184.97;;;6.80;100.00
11621;BME280;5866;49.094;11.900;2023-02-12T08:28:34;98184.00;;;7.39;100.00
11621;BME280;5866;49.094;11.900;2023-02-12T08:31:05;98175.38;;;8.45;100.00
11621;BME280;5866;49.094;11.900;2023-02-12T08:33:33;98166.03;;;8.79;100.00
11621;BME280;5866;49.094;11.900;2023-02-12T08:36:02;98167.09;;;9.27;100.00
11621;BME280;5866;49.094;11.900;2023-02-12T08:38:30;98166.16;;;9.89;100.00
11621;BME280;5866;49.094;11.900;2023-02-12T08:41:02;98164.84;;;9.58;100.00
11621;BME280;5866;49.094;11.900;2023-02-12T08:43:30;98163.72;;;10.22;100.00
11621;BME280;5866;49.094;11.900;2023-02-12T08:46:03;98165.16;;;10.74;100.00
11621;BME280;5866;49.094;11.900;2023-02-12T08:48:32;98159.59;;;11.34;97.92
11621;BME280;5866;49.094;11.900;2023-02-12T08:51:04;98164.16;;;11.09;94.58
11621;BME280;5866;49.094;11.900;2023-02-12T08:53:32;98166.38;;;10.46;95.22
11621;BME280;5866;49.094;11.900;2023-02-12T08:56:00;98166.78;;;10.98;97.25
11621;BME280;5866;49.094;11.900;2023-02-12T08:58:28;98163.72;;;11.49;89.74
11621;BME280;5866;49.094;11.900;2023-02-12T09:00:55;98163.19;;;12.21;86.63
11621;BME280;5866;49.094;11.900;2023-02-12T09:03:24;98172.22;;;12.30;82.99
11621;BME280;5866;49.094;11.900;2023-02-12T09:05:52;98166.88;;;11.87;86.75
11621;BME280;5866;49.094;11.900;2023-02-12T09:08:20;98175.41;;;11.13;91.77
11621;BME280;5866;49.094;11.900;2023-02-12T09:10:47;98174.94;;;11.30;90.38
11621;BME280;5866;49.094;11.900;2023-02-12T09:13:15;98181.13;;;9.78;100.00
11621;BME280;5866;49.094;11.900;2023-02-12T09:15:43;98182.94;;;10.26;100.00
11621;BME280;5866;49.094;11.900;2023-02-12T09:18:12;98179.25;;;10.39;100.00
11621;BME280;5866;49.094;11.900;2023-02-12T09:20:43;98177.78;;;11.05;98.17
11621;BME280;5866;49.094;11.900;2023-02-12T09:23:13;98176.41;;;11.56;92.86
11621;BME280;5866;49.094;11.900;2023-02-12T09:25:42;98178.75;;;10.34;96.73
11621;BME280;5866;49.094;11.900;2023-02-12T09:28:11;98180.44;;;10.35;100.00
11621;BME280;5866;49.094;11.900;2023-02-12T09:30:39;98182.44;;;10.56;100.00
11621;BME280;5866;49.094;11.900;2023-02-12T09:33:10;98181.00;;;10.86;96.24
11621;BME280;5866;49.094;11.900;2023-02-12T09:35:40;98180.41;;;10.83;96.04
11621;BME280;5866;49.094;11.900;2023-02-12T09:38:08;98182.22;;;11.39;91.00
11621;BME280;5866;49.094;11.900;2023-02-12T09:40:42;98174.72;;;11.55;92.24
11621;BME280;5866;49.094;11.900;2023-02-12T09:43:15;98176.88;;;12.06;86.16
11621;BME280;5866;49.094;11.900;2023-02-12T09:45:50;98180.38;;;11.51;86.24
11621;BME280;5866;49.094;11.900;2023-02-12T09:48:34;98193.00;;;11.03;91.76
11621;BME280;5866;49.094;11.900;2023-02-12T09:51:08;98194.63;;;9.62;100.00
11621;BME280;5866;49.094;11.900;2023-02-12T09:53:39;98187.44;;;10.36;100.00
11621;BME280;5866;49.094;11.900;2023-02-12T09:56:12;98187.13;;;11.22;95.66
11621;BME280;5866;49.094;11.900;2023-02-12T09:58:44;98193.94;;;11.48;91.67
11621;BME280;5866;49.094;11.900;2023-02-12T10:01:14;98182.47;;;11.80;86.71
11621;BME280;5866;49.094;11.900;2023-02-12T10:03:42;98182.38;;;12.36;82.30
11621;BME280;5866;49.094;11.900;2023-02-12T10:06:15;98185.59;;;12.82;80.69
11621;BME280;5866;49.094;11.900;2023-02-12T10:08:56;98192.09;;;13.21;75.50
11621;BME280;5866;49.094;11.900;2023-02-12T10:11:48;98187.44;;;13.02;74.88
11621;BME280;5866;49.094;11.900;2023-02-12T10:14:28;98185.09;;;12.56;76.48
11621;BME280;5866;49.094;11.900;2023-02-12T10:17:04;98185.88;;;13.41;72.51
11621;BME280;5866;49.094;11.900;2023-02-12T10:19:50;98185.78;;;13.42;70.13
11621;BME280;5866;49.094;11.900;2023-02-12T10:22:29;98177.38;;;14.26;68.17
11621;BME280;5866;49.094;11.900;2023-02-12T10:25:08;98185.03;;;14.50;65.60
11621;BME280;5866;49.094;11.900;2023-02-12T10:27:45;98183.44;;;13.89;66.59
11621;BME280;5866;49.094;11.900;2023-02-12T10:30:19;98189.09;;;13.03;69.94
11621;BME280;5866;49.094;11.900;2023-02-12T10:32:50;98184.25;;;12.88;72.83
11621;BME280;5866;49.094;11.900;2023-02-12T10:35:20;98192.78;;;13.43;70.21
11621;BME280;5866;49.094;11.900;2023-02-12T10:37:54;98189.13;;;13.24;67.52
11621;BME280;5866;49.094;11.900;2023-02-12T10:40:25;98189.63;;;12.97;68.62
11621;BME280;5866;49.094;11.900;2023-02-12T10:42:56;98191.19;;;12.79;70.26
11621;BME280;5866;49.094;11.900;2023-02-12T10:45:28;98189.22;;;12.60;72.81
11621;BME280;5866;49.094;11.900;2023-02-12T10:48:05;98191.06;;;13.01;70.82
11621;BME280;5866;49.094;11.900;2023-02-12T10:50:41;98188.34;;;13.53;68.28
11621;BME280;5866;49.094;11.900;2023-02-12T10:53:17;98186.66;;;13.11;66.01
11621;BME280;5866;49.094;11.900;2023-02-12T10:55:46;98189.38;;;12.48;72.50
11621;BME280;5866;49.094;11.900;2023-02-12T10:58:19;98192.66;;;13.24;68.52
11621;BME280;5866;49.094;11.900;2023-02-12T11:00:55;98185.50;;;14.15;63.13
11621;BME280;5866;49.094;11.900;2023-02-12T11:03:28;98180.41;;;14.81;60.35
11621;BME280;5866;49.094;11.900;2023-02-12T11:06:11;98180.31;;;16.04;55.42
11621;BME280;5866;49.094;11.900;2023-02-12T11:08:41;98177.28;;;16.61;53.52
11621;BME280;5866;49.094;11.900;2023-02-12T11:11:11;98175.56;;;16.42;52.54
11621;BME280;5866;49.094;11.900;2023-02-12T11:13:42;98174.00;;;16.22;53.82
11621;BME280;5866;49.094;11.900;2023-02-12T11:16:11;98169.25;;;16.16;52.99
11621;BME280;5866;49.094;11.900;2023-02-12T11:18:39;98169.28;;;15.14;54.91
11621;BME280;5866;49.094;11.900;2023-02-12T11:21:09;98170.28;;;14.65;57.08
11621;BME280;5866;49.094;11.900;2023-02-12T11:23:39;98169.03;;;15.07;56.75
11621;BME280;5866;49.094;11.900;2023-02-12T11:26:22;98173.66;;;15.25;55.22
11621;BME280;5866;49.094;11.900;2023-02-12T11:28:53;98163.13;;;14.94;55.79
11621;BME280;5866;49.094;11.900;2023-02-12T11:31:25;98159.88;;;14.03;56.56
11621;BME280;5866;49.094;11.900;2023-02-12T11:34:06;98167.50;;;13.38;60.62
11621;BME280;5866;49.094;11.900;2023-02-12T11:36:35;98162.25;;;13.87;59.58
11621;BME280;5866;49.094;11.900;2023-02-12T11:39:04;98166.88;;;12.41;62.30
11621;BME280;5866;49.094;11.900;2023-02-12T11:41:36;98171.56;;;11.61;67.14
11621;BME280;5866;49.094;11.900;2023-02-12T11:44:09;98169.84;;;11.05;71.46
11621;BME280;5866;49.094;11.900;2023-02-12T11:46:39;98167.81;;;10.74;75.45
11621;BME280;5866;49.094;11.900;2023-02-12T11:49:16;98169.56;;;10.97;78.95
11621;BME280;5866;49.094;11.900;2023-02-12T11:51:46;98165.47;;;12.26;66.41
11621;BME280;5866;49.094;11.900;2023-02-12T11:54:18;98159.03;;;12.71;62.53
11621;BME280;5866;49.094;11.900;2023-02-12T11:56:48;98165.75;;;12.12;62.88
11621;BME280;5866;49.094;11.900;2023-02-12T11:59:31;98166.44;;;12.25;63.08
11621;BME280;5866;49.094;11.900;2023-02-12T12:02:04;98162.69;;;12.27;62.98
11621;BME280;5866;49.094;11.900;2023-02-12T12:04:33;98166.19;;;12.28;62.65
11621;BME280;5866;49.094;11.900;2023-02-12T12:07:05;98163.88;;;12.34;61.74
11621;BME280;5866;49.094;11.900;2023-02-12T12:09:40;98164.44;;;11.95;63.26
11621;BME280;5866;49.094;11.900;2023-02-12T12:12:14;98167.25;;;11.71;65.25
11621;BME280;5866;49.094;11.900;2023-02-12T12:14:45;98162.59;;;12.07;64.37
11621;BME280;5866;49.094;11.900;2023-02-12T12:17:39;98160.59;;;11.66;64.40
11621;BME280;5866;49.094;11.900;2023-02-12T12:20:28;98166.38;;;11.38;66.02
11621;BME280;5866;49.094;11.900;2023-02-12T12:23:01;98161.31;;;11.57;65.35
11621;BME280;5866;49.094;11.900;2023-02-12T12:25:34;98161.66;;;11.63;63.99
11621;BME280;5866;49.094;11.900;2023-02-12T12:28:23;98164.53;;;11.27;67.16
11621;BME280;5866;49.094;11.900;2023-02-12T12:31:07;98155.88;;;11.47;65.75
11621;BME280;5866;49.094;11.900;2023-02-12T12:33:40;98158.28;;;11.39;65.59
11621;BME280;5866;49.094;11.900;2023-02-12T12:39:27;98160.22;;;11.81;63.60
11621;BME280;5866;49.094;11.900;2023-02-12T12:42:19;98152.00;;;11.51;64.51
11621;BME280;5866;49.094;11.900;2023-02-12T12:45:09;98151.28;;;11.60;62.94
11621;BME280;5866;49.094;11.900;2023-02-12T12:47:51;98155.66;;;11.72;63.96
11621;BME280;5866;49.094;11.900;2023-02-12T12:50:34;98148.88;;;11.90;63.25
11621;BME280;5866;49.094;11.900;2023-02-12T12:53:17;98154.16;;;12.02;61.19
11621;BME280;5866;49.094;11.900;2023-02-12T12:56:09;98154.59;;;12.29;60.72
11621;BME280;5866;49.094;11.900;2023-02-12T12:58:49;98158.69;;;11.79;63.92
11621;BME280;5866;49.094;11.900;2023-02-12T13:01:38;98154.06;;;11.37;67.78
11621;BME280;5866;49.094;11.900;2023-02-12T13:04:34;98151.22;;;10.94;66.45
11621;BME280;5866;49.094;11.900;2023-02-12T13:07:17;98156.59;;;10.81;67.86
11621;BME280;5866;49.094;11.900;2023-02-12T13:09:57;98152.09;;;10.71;69.00
11621;BME280;5866;49.094;11.900;2023-02-12T13:12:41;98155.63;;;11.28;67.01
11621;BME280;5866;49.094;11.900;2023-02-12T13:15:20;98146.56;;;11.64;64.15
11621;BME280;5866;49.094;11.900;2023-02-12T13:17:58;98153.19;;;12.03;62.08
11621;BME280;5866;49.094;11.900;2023-02-12T13:20:34;98152.22;;;12.15;60.95
11621;BME280;5866;49.094;11.900;2023-02-12T13:23:11;98146.94;;;11.81;62.69
11621;BME280;5866;49.094;11.900;2023-02-12T13:25:48;98145.97;;;11.93;63.24
11621;BME280;5866;49.094;11.900;2023-02-12T13:28:25;98150.44;;;12.04;63.41
11621;BME280;5866;49.094;11.900;2023-02-12T13:30:56;98156.84;;;11.79;64.14
11621;BME280;5866;49.094;11.900;2023-02-12T13:33:28;98147.91;;;11.80;62.98